sensor_id;sensor_type;location;lat;lon;timestamp;P1;durP1;ratioP1;P2;durP2;ratioP2
66472;SDS011;53291;51.680;8.344;2022-09-09T00:01:01;2.58;;;0.95;;
66472;SDS011;53291;51.680;8.344;2022-09-09T00:03:37;2.72;;;1.08;;
66472;SDS011;53291;51.680;8.344;2022-09-09T00:11:31;2.90;;;1.00;;
66472;SDS011;53291;51.680;8.344;2022-09-09T00:14:08;1.98;;;0.98;;
66472;SDS011;53291;51.680;8.344;2022-09-09T00:16:57;2.60;;;0.90;;
66472;SDS011;53291;51.680;8.344;2022-09-09T00:19:32;2.17;;;0.85;;
66472;SDS011;53291;51.680;8.344;2022-09-09T00:22:20;4.45;;;1.25;;
66472;SDS011;53291;51.680;8.344;2022-09-09T00:24:52;2.58;;;1.08;;
66472;SDS011;53291;51.680;8.344;2022-09-09T00:27:23;2.78;;;1.35;;
66472;SDS011;53291;51.680;8.344;2022-09-09T00:29:59;3.05;;;1.00;;
66472;SDS011;53291;51.680;8.344;2022-09-09T00:32:28;2.65;;;0.98;;
66472;SDS011;53291;51.680;8.344;2022-09-09T00:35:03;3.78;;;1.25;;
66472;SDS011;53291;51.680;8.344;2022-09-09T00:37:40;1.98;;;1.00;;
66472;SDS011;53291;51.680;8.344;2022-09-09T00:40:53;2.83;;;0.88;;
66472;SDS011;53291;51.680;8.344;2022-09-09T00:43:12;2.95;;;0.95;;
66472;SDS011;53291;51.680;8.344;2022-09-09T00:48:31;1.65;;;0.43;;
66472;SDS011;53291;51.680;8.344;2022-09-09T00:51:12;3.42;;;1.02;;
66472;SDS011;53291;51.680;8.344;2022-09-09T00:56:52;2.88;;;1.23;;
66472;SDS011;53291;51.680;8.344;2022-09-09T00:59:32;4.18;;;1.25;;
66472;SDS011;53291;51.680;8.344;2022-09-09T01:02:13;4.18;;;0.85;;
66472;SDS011;53291;51.680;8.344;2022-09-09T01:04:47;3.85;;;1.30;;
66472;SDS011;53291;51.680;8.344;2022-09-09T01:07:16;2.00;;;1.10;;
66472;SDS011;53291;51.680;8.344;2022-09-09T01:09:56;2.10;;;1.02;;
66472;SDS011;53291;51.680;8.344;2022-09-09T01:12:25;3.75;;;1.63;;
66472;SDS011;53291;51.680;8.344;2022-09-09T01:15:07;3.00;;;1.08;;
66472;SDS011;53291;51.680;8.344;2022-09-09T01:17:55;1.80;;;1.40;;
66472;SDS011;53291;51.680;8.344;2022-09-09T01:28:48;4.20;;;1.42;;
66472;SDS011;53291;51.680;8.344;2022-09-09T01:31:28;3.92;;;1.15;;
66472;SDS011;53291;51.680;8.344;2022-09-09T01:33:57;3.92;;;1.05;;
66472;SDS011;53291;51.680;8.344;2022-09-09T01:38:58;2.50;;;1.40;;
66472;SDS011;53291;51.680;8.344;2022-09-09T01:41:23;2.92;;;1.08;;
66472;SDS011;53291;51.680;8.344;2022-09-09T01:43:49;2.17;;;1.00;;
66472;SDS011;53291;51.680;8.344;2022-09-09T01:46:16;3.15;;;0.70;;
66472;SDS011;53291;51.680;8.344;2022-09-09T01:48:43;2.45;;;1.02;;
66472;SDS011;53291;51.680;8.344;2022-09-09T01:51:10;4.28;;;1.15;;
66472;SDS011;53291;51.680;8.344;2022-09-09T01:53:35;3.27;;;1.30;;
66472;SDS011;53291;51.680;8.344;2022-09-09T01:56:07;3.05;;;1.13;;
66472;SDS011;53291;51.680;8.344;2022-09-09T02:04:36;3.67;;;1.33;;
66472;SDS011;53291;51.680;8.344;2022-09-09T02:07:06;2.75;;;1.08;;
66472;SDS011;53291;51.680;8.344;2022-09-09T02:09:42;3.75;;;1.20;;
66472;SDS011;53291;51.680;8.344;2022-09-09T02:12:11;3.25;;;0.98;;
66472;SDS011;53291;51.680;8.344;2022-09-09T02:14:40;3.30;;;0.60;;
66472;SDS011;53291;51.680;8.344;2022-09-09T02:17:11;3.00;;;1.20;;
66472;SDS011;53291;51.680;8.344;2022-09-09T02:19:44;2.13;;;1.10;;
66472;SDS011;53291;51.680;8.344;2022-09-09T02:22:14;3.75;;;1.15;;
66472;SDS011;53291;51.680;8.344;2022-09-09T02:24:43;3.70;;;1.30;;
66472;SDS011;53291;51.680;8.344;2022-09-09T02:27:11;4.53;;;1.27;;
66472;SDS011;53291;51.680;8.344;2022-09-09T02:29:39;3.55;;;0.75;;
66472;SDS011;53291;51.680;8.344;2022-09-09T02:32:07;2.72;;;1.08;;
66472;SDS011;53291;51.680;8.344;2022-09-09T02:34:38;2.03;;;1.10;;
66472;SDS011;53291;51.680;8.344;2022-09-09T02:37:07;2.63;;;0.95;;
66472;SDS011;53291;51.680;8.344;2022-09-09T02:39:35;2.72;;;1.27;;
66472;SDS011;53291;51.680;8.344;2022-09-09T02:42:01;2.90;;;1.48;;
66472;SDS011;53291;51.680;8.344;2022-09-09T02:44:28;2.08;;;1.38;;
66472;SDS011;53291;51.680;8.344;2022-09-09T02:49:49;3.28;;;0.98;;
66472;SDS011;53291;51.680;8.344;2022-09-09T02:52:26;2.67;;;1.27;;
66472;SDS011;53291;51.680;8.344;2022-09-09T02:54:59;6.72;;;1.27;;
66472;SDS011;53291;51.680;8.344;2022-09-09T02:57:31;1.90;;;1.10;;
66472;SDS011;53291;51.680;8.344;2022-09-09T02:59:58;3.55;;;1.17;;
66472;SDS011;53291;51.680;8.344;2022-09-09T03:02:25;3.42;;;1.10;;
66472;SDS011;53291;51.680;8.344;2022-09-09T03:04:50;2.87;;;1.00;;
66472;SDS011;53291;51.680;8.344;2022-09-09T03:07:17;4.40;;;1.50;;
66472;SDS011;53291;51.680;8.344;2022-09-09T03:09:46;4.50;;;1.30;;
66472;SDS011;53291;51.680;8.344;2022-09-09T03:12:12;4.30;;;1.35;;
66472;SDS011;53291;51.680;8.344;2022-09-09T03:14:38;3.03;;;1.35;;
66472;SDS011;53291;51.680;8.344;2022-09-09T03:17:04;2.85;;;1.45;;
66472;SDS011;53291;51.680;8.344;2022-09-09T03:19:30;3.83;;;1.23;;
66472;SDS011;53291;51.680;8.344;2022-09-09T03:21:56;3.55;;;1.30;;
66472;SDS011;53291;51.680;8.344;2022-09-09T03:24:22;4.47;;;1.40;;
66472;SDS011;53291;51.680;8.344;2022-09-09T03:26:47;3.70;;;1.92;;
66472;SDS011;53291;51.680;8.344;2022-09-09T03:29:13;3.92;;;1.40;;
66472;SDS011;53291;51.680;8.344;2022-09-09T03:31:39;2.35;;;1.00;;
66472;SDS011;53291;51.680;8.344;2022-09-09T03:34:05;2.13;;;1.15;;
66472;SDS011;53291;51.680;8.344;2022-09-09T03:36:30;3.83;;;1.02;;
66472;SDS011;53291;51.680;8.344;2022-09-09T03:38:56;2.35;;;1.00;;
66472;SDS011;53291;51.680;8.344;2022-09-09T03:41:22;4.47;;;1.33;;
66472;SDS011;53291;51.680;8.344;2022-09-09T03:43:48;2.60;;;1.08;;
66472;SDS011;53291;51.680;8.344;2022-09-09T03:46:17;6.25;;;1.27;;
66472;SDS011;53291;51.680;8.344;2022-09-09T03:48:44;4.80;;;1.10;;
66472;SDS011;53291;51.680;8.344;2022-09-09T03:51:09;4.65;;;1.10;;
66472;SDS011;53291;51.680;8.344;2022-09-09T03:53:35;2.70;;;1.23;;
66472;SDS011;53291;51.680;8.344;2022-09-09T03:56:02;3.83;;;0.82;;
66472;SDS011;53291;51.680;8.344;2022-09-09T03:58:31;3.45;;;1.08;;
66472;SDS011;53291;51.680;8.344;2022-09-09T04:00:59;2.78;;;1.30;;
66472;SDS011;53291;51.680;8.344;2022-09-09T04:03:26;2.28;;;1.13;;
66472;SDS011;53291;51.680;8.344;2022-09-09T04:05:52;2.17;;;0.98;;
66472;SDS011;53291;51.680;8.344;2022-09-09T04:08:18;3.13;;;0.70;;
66472;SDS011;53291;51.680;8.344;2022-09-09T04:10:46;3.33;;;1.33;;
66472;SDS011;53291;51.680;8.344;2022-09-09T04:13:12;2.72;;;0.73;;
66472;SDS011;53291;51.680;8.344;2022-09-09T04:15:39;3.28;;;1.13;;
66472;SDS011;53291;51.680;8.344;2022-09-09T04:18:05;2.93;;;1.17;;
66472;SDS011;53291;51.680;8.344;2022-09-09T04:20:31;2.83;;;0.73;;
66472;SDS011;53291;51.680;8.344;2022-09-09T04:22:57;3.38;;;1.08;;
66472;SDS011;53291;51.680;8.344;2022-09-09T04:25:22;2.72;;;1.50;;
66472;SDS011;53291;51.680;8.344;2022-09-09T04:27:52;2.97;;;1.50;;
66472;SDS011;53291;51.680;8.344;2022-09-09T04:30:19;3.55;;;1.15;;
66472;SDS011;53291;51.680;8.344;2022-09-09T04:32:45;3.95;;;1.58;;
66472;SDS011;53291;51.680;8.344;2022-09-09T04:35:10;2.70;;;1.27;;
66472;SDS011;53291;51.680;8.344;2022-09-09T04:37:36;2.80;;;1.27;;
66472;SDS011;53291;51.680;8.344;2022-09-09T04:40:01;5.30;;;1.27;;
66472;SDS011;53291;51.680;8.344;2022-09-09T04:42:27;3.20;;;1.30;;
66472;SDS011;53291;51.680;8.344;2022-09-09T04:44:52;3.47;;;1.38;;
66472;SDS011;53291;51.680;8.344;2022-09-09T04:47:18;7.32;;;2.15;;
66472;SDS011;53291;51.680;8.344;2022-09-09T04:49:43;2.77;;;1.37;;
66472;SDS011;53291;51.680;8.344;2022-09-09T04:52:09;3.63;;;1.50;;
66472;SDS011;53291;51.680;8.344;2022-09-09T04:54:34;4.80;;;1.60;;
66472;SDS011;53291;51.680;8.344;2022-09-09T04:56:59;5.43;;;1.00;;
66472;SDS011;53291;51.680;8.344;2022-09-09T04:59:25;3.30;;;0.90;;
66472;SDS011;53291;51.680;8.344;2022-09-09T05:01:50;2.93;;;1.17;;
66472;SDS011;53291;51.680;8.344;2022-09-09T05:04:16;2.92;;;1.20;;
66472;SDS011;53291;51.680;8.344;2022-09-09T05:06:41;4.57;;;1.23;;
66472;SDS011;53291;51.680;8.344;2022-09-09T05:09:07;3.83;;;1.60;;
66472;SDS011;53291;51.680;8.344;2022-09-09T05:11:33;3.50;;;1.45;;
66472;SDS011;53291;51.680;8.344;2022-09-09T05:14:01;3.95;;;1.25;;
66472;SDS011;53291;51.680;8.344;2022-09-09T05:16:27;3.15;;;1.42;;
66472;SDS011;53291;51.680;8.344;2022-09-09T05:18:52;3.70;;;0.63;;
66472;SDS011;53291;51.680;8.344;2022-09-09T05:21:21;4.82;;;1.52;;
66472;SDS011;53291;51.680;8.344;2022-09-09T05:23:48;2.78;;;1.25;;
66472;SDS011;53291;51.680;8.344;2022-09-09T05:26:17;3.22;;;1.40;;
66472;SDS011;53291;51.680;8.344;2022-09-09T05:28:46;6.90;;;1.60;;
66472;SDS011;53291;51.680;8.344;2022-09-09T05:31:13;4.25;;;1.45;;
66472;SDS011;53291;51.680;8.344;2022-09-09T05:33:40;4.85;;;1.80;;
66472;SDS011;53291;51.680;8.344;2022-09-09T05:36:08;3.38;;;1.30;;
66472;SDS011;53291;51.680;8.344;2022-09-09T05:38:37;4.90;;;1.30;;
66472;SDS011;53291;51.680;8.344;2022-09-09T05:41:03;4.15;;;1.13;;
66472;SDS011;53291;51.680;8.344;2022-09-09T05:43:28;4.18;;;1.60;;
66472;SDS011;53291;51.680;8.344;2022-09-09T05:46:13;5.40;;;1.52;;
66472;SDS011;53291;51.680;8.344;2022-09-09T05:48:41;3.40;;;1.33;;
66472;SDS011;53291;51.680;8.344;2022-09-09T05:51:09;7.68;;;1.95;;
66472;SDS011;53291;51.680;8.344;2022-09-09T05:53:40;4.68;;;1.50;;
66472;SDS011;53291;51.680;8.344;2022-09-09T05:58:37;3.88;;;1.38;;
66472;SDS011;53291;51.680;8.344;2022-09-09T06:01:13;2.50;;;1.20;;
66472;SDS011;53291;51.680;8.344;2022-09-09T06:03:42;3.38;;;1.17;;
66472;SDS011;53291;51.680;8.344;2022-09-09T06:06:12;4.10;;;1.48;;
66472;SDS011;53291;51.680;8.344;2022-09-09T06:11:26;7.55;;;1.55;;
66472;SDS011;53291;51.680;8.344;2022-09-09T06:13:56;2.55;;;1.30;;
66472;SDS011;53291;51.680;8.344;2022-09-09T06:16:22;3.72;;;1.27;;
66472;SDS011;53291;51.680;8.344;2022-09-09T06:18:49;7.45;;;1.83;;
66472;SDS011;53291;51.680;8.344;2022-09-09T06:21:19;4.95;;;1.48;;
66472;SDS011;53291;51.680;8.344;2022-09-09T06:23:52;3.47;;;1.15;;
66472;SDS011;53291;51.680;8.344;2022-09-09T06:26:21;3.95;;;1.35;;
66472;SDS011;53291;51.680;8.344;2022-09-09T06:28:49;2.45;;;1.15;;
66472;SDS011;53291;51.680;8.344;2022-09-09T06:31:16;4.15;;;1.40;;
66472;SDS011;53291;51.680;8.344;2022-09-09T06:33:46;5.03;;;0.70;;
66472;SDS011;53291;51.680;8.344;2022-09-09T06:36:12;5.05;;;1.70;;
66472;SDS011;53291;51.680;8.344;2022-09-09T06:38:40;3.13;;;1.52;;
66472;SDS011;53291;51.680;8.344;2022-09-09T06:41:05;3.50;;;1.13;;
66472;SDS011;53291;51.680;8.344;2022-09-09T06:43:31;3.83;;;1.42;;
66472;SDS011;53291;51.680;8.344;2022-09-09T06:45:58;4.10;;;0.95;;
66472;SDS011;53291;51.680;8.344;2022-09-09T06:48:25;3.17;;;1.33;;
66472;SDS011;53291;51.680;8.344;2022-09-09T06:51:01;5.10;;;1.10;;
66472;SDS011;53291;51.680;8.344;2022-09-09T06:53:31;6.03;;;1.35;;
66472;SDS011;53291;51.680;8.344;2022-09-09T06:56:01;7.03;;;1.75;;
66472;SDS011;53291;51.680;8.344;2022-09-09T06:58:38;3.30;;;0.73;;
66472;SDS011;53291;51.680;8.344;2022-09-09T07:01:12;3.22;;;1.08;;
66472;SDS011;53291;51.680;8.344;2022-09-09T07:03:39;4.40;;;1.33;;
66472;SDS011;53291;51.680;8.344;2022-09-09T07:06:05;4.00;;;1.25;;
66472;SDS011;53291;51.680;8.344;2022-09-09T07:08:32;3.97;;;0.82;;
66472;SDS011;53291;51.680;8.344;2022-09-09T07:11:02;4.60;;;1.00;;
66472;SDS011;53291;51.680;8.344;2022-09-09T07:13:29;4.45;;;0.90;;
66472;SDS011;53291;51.680;8.344;2022-09-09T07:16:02;5.00;;;1.10;;
66472;SDS011;53291;51.680;8.344;2022-09-09T07:18:31;3.10;;;1.20;;
66472;SDS011;53291;51.680;8.344;2022-09-09T07:20:58;2.65;;;0.80;;
66472;SDS011;53291;51.680;8.344;2022-09-09T07:23:24;4.10;;;1.10;;
66472;SDS011;53291;51.680;8.344;2022-09-09T07:25:49;3.47;;;0.95;;
66472;SDS011;53291;51.680;8.344;2022-09-09T07:28:15;3.40;;;1.05;;
66472;SDS011;53291;51.680;8.344;2022-09-09T07:30:41;3.78;;;0.88;;
66472;SDS011;53291;51.680;8.344;2022-09-09T07:33:07;2.95;;;0.88;;
66472;SDS011;53291;51.680;8.344;2022-09-09T07:35:34;5.10;;;1.00;;
66472;SDS011;53291;51.680;8.344;2022-09-09T07:38:03;2.15;;;0.63;;
66472;SDS011;53291;51.680;8.344;2022-09-09T07:40:32;4.07;;;0.90;;
66472;SDS011;53291;51.680;8.344;2022-09-09T07:42:58;3.30;;;1.15;;
66472;SDS011;53291;51.680;8.344;2022-09-09T07:45:24;2.85;;;1.00;;
66472;SDS011;53291;51.680;8.344;2022-09-09T07:47:49;2.65;;;1.10;;
66472;SDS011;53291;51.680;8.344;2022-09-09T07:50:15;1.48;;;1.05;;
66472;SDS011;53291;51.680;8.344;2022-09-09T07:52:40;2.58;;;0.70;;
66472;SDS011;53291;51.680;8.344;2022-09-09T07:55:06;2.58;;;0.50;;
66472;SDS011;53291;51.680;8.344;2022-09-09T07:57:31;3.28;;;1.17;;
66472;SDS011;53291;51.680;8.344;2022-09-09T07:59:57;2.58;;;0.73;;
66472;SDS011;53291;51.680;8.344;2022-09-09T08:02:23;2.88;;;1.08;;
66472;SDS011;53291;51.680;8.344;2022-09-09T08:04:50;1.70;;;0.50;;
66472;SDS011;53291;51.680;8.344;2022-09-09T08:07:16;3.30;;;1.25;;
66472;SDS011;53291;51.680;8.344;2022-09-09T08:09:42;7.63;;;1.15;;
66472;SDS011;53291;51.680;8.344;2022-09-09T08:12:07;2.65;;;1.00;;
66472;SDS011;53291;51.680;8.344;2022-09-09T08:14:33;6.38;;;2.00;;
66472;SDS011;53291;51.680;8.344;2022-09-09T08:16:59;3.63;;;1.08;;
66472;SDS011;53291;51.680;8.344;2022-09-09T08:19:24;4.68;;;0.80;;
66472;SDS011;53291;51.680;8.344;2022-09-09T08:21:53;1.98;;;0.80;;
66472;SDS011;53291;51.680;8.344;2022-09-09T08:24:21;4.40;;;0.90;;
66472;SDS011;53291;51.680;8.344;2022-09-09T08:26:48;6.95;;;1.20;;
66472;SDS011;53291;51.680;8.344;2022-09-09T08:29:14;3.22;;;0.40;;
66472;SDS011;53291;51.680;8.344;2022-09-09T08:31:43;4.15;;;0.82;;
66472;SDS011;53291;51.680;8.344;2022-09-09T08:34:10;2.25;;;0.40;;
66472;SDS011;53291;51.680;8.344;2022-09-09T08:36:37;2.42;;;0.68;;
66472;SDS011;53291;51.680;8.344;2022-09-09T08:39:05;7.82;;;1.40;;
66472;SDS011;53291;51.680;8.344;2022-09-09T08:58:18;4.70;;;1.30;;
66472;SDS011;53291;51.680;8.344;2022-09-09T09:09:02;5.13;;;1.05;;
66472;SDS011;53291;51.680;8.344;2022-09-09T09:11:34;3.58;;;0.95;;
66472;SDS011;53291;51.680;8.344;2022-09-09T09:14:02;3.50;;;1.00;;
66472;SDS011;53291;51.680;8.344;2022-09-09T09:19:08;3.05;;;0.52;;
66472;SDS011;53291;51.680;8.344;2022-09-09T09:27:33;5.53;;;0.95;;
66472;SDS011;53291;51.680;8.344;2022-09-09T09:30:02;2.38;;;0.82;;
66472;SDS011;53291;51.680;8.344;2022-09-09T09:32:38;2.72;;;0.80;;
66472;SDS011;53291;51.680;8.344;2022-09-09T09:35:06;4.00;;;1.15;;
66472;SDS011;53291;51.680;8.344;2022-09-09T09:37:36;5.20;;;0.73;;
66472;SDS011;53291;51.680;8.344;2022-09-09T09:40:09;3.42;;;0.85;;
66472;SDS011;53291;51.680;8.344;2022-09-09T09:42:35;2.15;;;0.60;;
66472;SDS011;53291;51.680;8.344;2022-09-09T09:45:14;3.30;;;0.88;;
66472;SDS011;53291;51.680;8.344;2022-09-09T09:47:45;2.40;;;0.80;;
66472;SDS011;53291;51.680;8.344;2022-09-09T09:50:18;6.78;;;0.75;;
66472;SDS011;53291;51.680;8.344;2022-09-09T09:52:53;3.85;;;0.40;;
66472;SDS011;53291;51.680;8.344;2022-09-09T09:55:20;3.42;;;1.05;;
66472;SDS011;53291;51.680;8.344;2022-09-09T09:57:47;2.58;;;0.40;;
66472;SDS011;53291;51.680;8.344;2022-09-09T10:00:14;2.58;;;0.50;;
66472;SDS011;53291;51.680;8.344;2022-09-09T10:02:43;2.65;;;0.90;;
66472;SDS011;53291;51.680;8.344;2022-09-09T10:07:37;2.88;;;1.30;;
66472;SDS011;53291;51.680;8.344;2022-09-09T10:10:03;3.80;;;1.08;;
66472;SDS011;53291;51.680;8.344;2022-09-09T10:31:37;2.85;;;0.52;;
66472;SDS011;53291;51.680;8.344;2022-09-09T10:37:21;2.63;;;0.52;;
66472;SDS011;53291;51.680;8.344;2022-09-09T10:46:07;4.38;;;0.77;;
66472;SDS011;53291;51.680;8.344;2022-09-09T10:48:31;2.75;;;0.90;;
66472;SDS011;53291;51.680;8.344;2022-09-09T10:54:00;1.95;;;0.43;;
66472;SDS011;53291;51.680;8.344;2022-09-09T10:56:35;2.53;;;0.98;;
66472;SDS011;53291;51.680;8.344;2022-09-09T10:59:06;3.92;;;1.08;;
66472;SDS011;53291;51.680;8.344;2022-09-09T11:01:41;3.00;;;0.77;;
66472;SDS011;53291;51.680;8.344;2022-09-09T11:04:22;2.28;;;0.77;;
66472;SDS011;53291;51.680;8.344;2022-09-09T11:06:52;3.55;;;0.93;;
66472;SDS011;53291;51.680;8.344;2022-09-09T11:09:27;3.05;;;1.25;;
66472;SDS011;53291;51.680;8.344;2022-09-09T11:11:55;1.52;;;0.85;;
66472;SDS011;53291;51.680;8.344;2022-09-09T11:15:04;2.03;;;1.00;;
66472;SDS011;53291;51.680;8.344;2022-09-09T11:17:11;3.45;;;1.00;;
66472;SDS011;53291;51.680;8.344;2022-09-09T11:19:40;2.17;;;1.20;;
66472;SDS011;53291;51.680;8.344;2022-09-09T11:27:12;1.05;;;0.60;;
66472;SDS011;53291;51.680;8.344;2022-09-09T11:35:48;2.30;;;0.75;;
66472;SDS011;53291;51.680;8.344;2022-09-09T11:38:46;2.58;;;0.57;;
66472;SDS011;53291;51.680;8.344;2022-09-09T11:41:16;1.92;;;0.45;;
66472;SDS011;53291;51.680;8.344;2022-09-09T11:43:43;3.75;;;0.50;;
66472;SDS011;53291;51.680;8.344;2022-09-09T11:46:09;3.35;;;1.33;;
66472;SDS011;53291;51.680;8.344;2022-09-09T11:51:24;1.98;;;0.82;;
66472;SDS011;53291;51.680;8.344;2022-09-09T11:53:52;3.90;;;1.08;;
66472;SDS011;53291;51.680;8.344;2022-09-09T12:02:02;3.03;;;1.00;;
66472;SDS011;53291;51.680;8.344;2022-09-09T12:04:49;3.28;;;0.70;;
66472;SDS011;53291;51.680;8.344;2022-09-09T12:12:53;2.83;;;0.70;;
66472;SDS011;53291;51.680;8.344;2022-09-09T12:15:23;3.08;;;0.50;;
66472;SDS011;53291;51.680;8.344;2022-09-09T12:17:53;5.05;;;1.88;;
66472;SDS011;53291;51.680;8.344;2022-09-09T12:20:42;2.85;;;0.60;;
66472;SDS011;53291;51.680;8.344;2022-09-09T12:25:57;2.25;;;0.43;;
66472;SDS011;53291;51.680;8.344;2022-09-09T12:28:46;3.72;;;0.90;;
66472;SDS011;53291;51.680;8.344;2022-09-09T12:37:51;3.60;;;1.13;;
66472;SDS011;53291;51.680;8.344;2022-09-09T12:39:57;2.83;;;1.05;;
66472;SDS011;53291;51.680;8.344;2022-09-09T12:42:25;2.42;;;1.00;;
66472;SDS011;53291;51.680;8.344;2022-09-09T12:47:22;2.97;;;0.80;;
66472;SDS011;53291;51.680;8.344;2022-09-09T12:49:54;2.70;;;0.85;;
66472;SDS011;53291;51.680;8.344;2022-09-09T12:55:00;2.15;;;0.85;;
66472;SDS011;53291;51.680;8.344;2022-09-09T12:57:32;2.67;;;0.82;;
66472;SDS011;53291;51.680;8.344;2022-09-09T13:00:12;3.08;;;0.95;;
66472;SDS011;53291;51.680;8.344;2022-09-09T13:02:48;2.35;;;0.32;;
66472;SDS011;53291;51.680;8.344;2022-09-09T13:05:28;1.85;;;0.30;;
66472;SDS011;53291;51.680;8.344;2022-09-09T13:08:02;2.15;;;0.90;;
66472;SDS011;53291;51.680;8.344;2022-09-09T13:10:31;1.48;;;0.40;;
66472;SDS011;53291;51.680;8.344;2022-09-09T13:13:03;1.95;;;0.30;;
66472;SDS011;53291;51.680;8.344;2022-09-09T13:15:37;2.30;;;0.80;;
66472;SDS011;53291;51.680;8.344;2022-09-09T13:18:06;3.30;;;0.40;;
66472;SDS011;53291;51.680;8.344;2022-09-09T13:20:38;2.22;;;0.77;;
66472;SDS011;53291;51.680;8.344;2022-09-09T13:23:04;1.83;;;0.40;;
66472;SDS011;53291;51.680;8.344;2022-09-09T13:25:30;1.27;;;0.73;;
66472;SDS011;53291;51.680;8.344;2022-09-09T13:27:57;1.45;;;0.40;;
66472;SDS011;53291;51.680;8.344;2022-09-09T13:30:28;1.60;;;1.02;;
66472;SDS011;53291;51.680;8.344;2022-09-09T13:33:03;2.60;;;0.30;;
66472;SDS011;53291;51.680;8.344;2022-09-09T13:35:53;1.27;;;0.50;;
66472;SDS011;53291;51.680;8.344;2022-09-09T13:38:24;2.60;;;0.80;;
66472;SDS011;53291;51.680;8.344;2022-09-09T13:43:24;1.38;;;0.20;;
66472;SDS011;53291;51.680;8.344;2022-09-09T13:45:55;3.03;;;1.13;;
66472;SDS011;53291;51.680;8.344;2022-09-09T13:48:27;2.05;;;0.70;;
66472;SDS011;53291;51.680;8.344;2022-09-09T13:51:03;1.80;;;0.40;;
66472;SDS011;53291;51.680;8.344;2022-09-09T13:53:30;3.28;;;0.60;;
66472;SDS011;53291;51.680;8.344;2022-09-09T13:55:56;1.27;;;0.65;;
66472;SDS011;53291;51.680;8.344;2022-09-09T13:58:22;2.05;;;0.40;;
66472;SDS011;53291;51.680;8.344;2022-09-09T14:00:49;3.47;;;0.50;;
66472;SDS011;53291;51.680;8.344;2022-09-09T14:03:15;1.33;;;0.52;;
66472;SDS011;53291;51.680;8.344;2022-09-09T14:05:41;1.98;;;0.50;;
66472;SDS011;53291;51.680;8.344;2022-09-09T14:08:07;1.38;;;0.30;;
66472;SDS011;53291;51.680;8.344;2022-09-09T14:10:40;1.67;;;0.98;;
66472;SDS011;53291;51.680;8.344;2022-09-09T14:13:05;1.92;;;0.90;;
66472;SDS011;53291;51.680;8.344;2022-09-09T14:15:31;2.88;;;1.10;;
66472;SDS011;53291;51.680;8.344;2022-09-09T14:17:56;2.00;;;0.83;;
66472;SDS011;53291;51.680;8.344;2022-09-09T14:20:23;3.60;;;0.30;;
66472;SDS011;53291;51.680;8.344;2022-09-09T14:22:49;3.45;;;0.80;;
66472;SDS011;53291;51.680;8.344;2022-09-09T14:25:14;2.53;;;0.73;;
66472;SDS011;53291;51.680;8.344;2022-09-09T14:27:40;3.90;;;0.40;;
66472;SDS011;53291;51.680;8.344;2022-09-09T14:30:07;3.28;;;1.10;;
66472;SDS011;53291;51.680;8.344;2022-09-09T14:32:34;3.20;;;0.68;;
66472;SDS011;53291;51.680;8.344;2022-09-09T14:34:59;2.95;;;1.30;;
66472;SDS011;53291;51.680;8.344;2022-09-09T14:37:26;2.38;;;0.80;;
66472;SDS011;53291;51.680;8.344;2022-09-09T14:39:52;1.83;;;0.50;;
66472;SDS011;53291;51.680;8.344;2022-09-09T14:42:19;2.10;;;1.00;;
66472;SDS011;53291;51.680;8.344;2022-09-09T14:44:44;1.55;;;0.50;;
66472;SDS011;53291;51.680;8.344;2022-09-09T14:47:10;1.85;;;0.40;;
66472;SDS011;53291;51.680;8.344;2022-09-09T14:49:35;1.38;;;0.60;;
66472;SDS011;53291;51.680;8.344;2022-09-09T14:52:02;2.60;;;0.90;;
66472;SDS011;53291;51.680;8.344;2022-09-09T14:54:28;2.88;;;0.80;;
66472;SDS011;53291;51.680;8.344;2022-09-09T14:56:54;3.40;;;0.30;;
66472;SDS011;53291;51.680;8.344;2022-09-09T14:59:19;1.92;;;0.40;;
66472;SDS011;53291;51.680;8.344;2022-09-09T15:01:44;2.95;;;1.00;;
66472;SDS011;53291;51.680;8.344;2022-09-09T15:04:10;3.27;;;1.00;;
66472;SDS011;53291;51.680;8.344;2022-09-09T15:06:37;2.20;;;0.30;;
66472;SDS011;53291;51.680;8.344;2022-09-09T15:09:04;2.03;;;0.77;;
66472;SDS011;53291;51.680;8.344;2022-09-09T15:11:31;2.78;;;0.93;;
66472;SDS011;53291;51.680;8.344;2022-09-09T15:14:02;1.75;;;0.30;;
66472;SDS011;53291;51.680;8.344;2022-09-09T15:16:28;2.30;;;0.98;;
66472;SDS011;53291;51.680;8.344;2022-09-09T15:18:54;2.08;;;0.40;;
66472;SDS011;53291;51.680;8.344;2022-09-09T15:21:23;1.40;;;0.73;;
66472;SDS011;53291;51.680;8.344;2022-09-09T15:23:50;2.95;;;1.05;;
66472;SDS011;53291;51.680;8.344;2022-09-09T15:26:16;2.00;;;0.40;;
66472;SDS011;53291;51.680;8.344;2022-09-09T15:28:42;2.20;;;0.80;;
66472;SDS011;53291;51.680;8.344;2022-09-09T15:31:16;2.60;;;0.60;;
66472;SDS011;53291;51.680;8.344;2022-09-09T15:33:46;3.28;;;0.50;;
66472;SDS011;53291;51.680;8.344;2022-09-09T15:38:43;2.25;;;0.60;;
66472;SDS011;53291;51.680;8.344;2022-09-09T15:41:09;4.07;;;1.20;;
66472;SDS011;53291;51.680;8.344;2022-09-09T15:43:34;3.65;;;0.88;;
66472;SDS011;53291;51.680;8.344;2022-09-09T15:46:02;3.67;;;1.50;;
66472;SDS011;53291;51.680;8.344;2022-09-09T15:48:49;6.25;;;1.80;;
66472;SDS011;53291;51.680;8.344;2022-09-09T15:51:15;4.30;;;1.45;;
66472;SDS011;53291;51.680;8.344;2022-09-09T15:53:41;3.95;;;1.33;;
66472;SDS011;53291;51.680;8.344;2022-09-09T15:56:07;3.72;;;1.33;;
66472;SDS011;53291;51.680;8.344;2022-09-09T15:58:33;4.85;;;0.82;;
66472;SDS011;53291;51.680;8.344;2022-09-09T16:01:06;3.70;;;1.75;;
66472;SDS011;53291;51.680;8.344;2022-09-09T16:03:36;6.43;;;1.38;;
66472;SDS011;53291;51.680;8.344;2022-09-09T16:06:02;4.82;;;1.70;;
66472;SDS011;53291;51.680;8.344;2022-09-09T16:08:37;5.68;;;1.63;;
66472;SDS011;53291;51.680;8.344;2022-09-09T16:11:08;8.07;;;1.52;;
66472;SDS011;53291;51.680;8.344;2022-09-09T16:13:36;5.60;;;1.73;;
66472;SDS011;53291;51.680;8.344;2022-09-09T16:16:02;3.40;;;0.82;;
66472;SDS011;53291;51.680;8.344;2022-09-09T16:18:36;2.95;;;1.27;;
66472;SDS011;53291;51.680;8.344;2022-09-09T16:21:03;3.53;;;1.45;;
66472;SDS011;53291;51.680;8.344;2022-09-09T16:23:30;3.50;;;1.48;;
66472;SDS011;53291;51.680;8.344;2022-09-09T16:25:56;2.78;;;1.67;;
66472;SDS011;53291;51.680;8.344;2022-09-09T16:28:21;6.03;;;1.92;;
66472;SDS011;53291;51.680;8.344;2022-09-09T16:30:47;4.85;;;1.75;;
66472;SDS011;53291;51.680;8.344;2022-09-09T16:33:13;52.05;;;18.50;;
66472;SDS011;53291;51.680;8.344;2022-09-09T16:35:40;23.45;;;8.88;;
66472;SDS011;53291;51.680;8.344;2022-09-09T16:38:06;25.75;;;9.73;;
66472;SDS011;53291;51.680;8.344;2022-09-09T16:40:33;20.02;;;8.77;;
66472;SDS011;53291;51.680;8.344;2022-09-09T16:43:03;47.92;;;20.75;;
66472;SDS011;53291;51.680;8.344;2022-09-09T16:45:29;27.40;;;10.88;;
66472;SDS011;53291;51.680;8.344;2022-09-09T16:47:55;13.23;;;5.50;;
66472;SDS011;53291;51.680;8.344;2022-09-09T16:50:20;14.43;;;4.30;;
66472;SDS011;53291;51.680;8.344;2022-09-09T16:52:45;10.13;;;3.30;;
66472;SDS011;53291;51.680;8.344;2022-09-09T16:55:11;4.63;;;1.52;;
66472;SDS011;53291;51.680;8.344;2022-09-09T16:57:36;3.90;;;2.35;;
66472;SDS011;53291;51.680;8.344;2022-09-09T17:00:02;4.57;;;1.95;;
66472;SDS011;53291;51.680;8.344;2022-09-09T17:02:30;4.82;;;2.17;;
66472;SDS011;53291;51.680;8.344;2022-09-09T17:04:56;3.80;;;2.15;;
66472;SDS011;53291;51.680;8.344;2022-09-09T17:07:21;4.10;;;1.60;;
66472;SDS011;53291;51.680;8.344;2022-09-09T17:09:47;4.60;;;2.55;;
66472;SDS011;53291;51.680;8.344;2022-09-09T17:12:13;4.10;;;1.83;;
66472;SDS011;53291;51.680;8.344;2022-09-09T17:14:38;5.85;;;1.73;;
66472;SDS011;53291;51.680;8.344;2022-09-09T17:17:04;8.13;;;2.88;;
66472;SDS011;53291;51.680;8.344;2022-09-09T17:19:29;3.20;;;1.50;;
66472;SDS011;53291;51.680;8.344;2022-09-09T17:21:55;8.35;;;2.15;;
66472;SDS011;53291;51.680;8.344;2022-09-09T17:24:23;2.72;;;1.08;;
66472;SDS011;53291;51.680;8.344;2022-09-09T17:26:51;4.10;;;1.10;;